createdAt,value
2022-07-31T00:00:22.571Z,3.47
2022-07-31T00:02:50.898Z,3.10
2022-07-31T00:05:18.510Z,3.08
2022-07-31T00:07:46.109Z,3.67
2022-07-31T00:10:13.807Z,3.95
2022-07-31T00:12:42.745Z,3.45
2022-07-31T00:15:11.219Z,3.03
2022-07-31T00:17:38.987Z,3.70
2022-07-31T00:20:07.925Z,2.83
2022-07-31T00:22:36.429Z,3.00
2022-07-31T00:25:04.244Z,2.67
2022-07-31T00:27:31.890Z,2.88
2022-07-31T00:30:00.936Z,3.88
2022-07-31T00:32:28.606Z,2.65
2022-07-31T00:34:56.294Z,2.90
2022-07-31T00:37:23.993Z,2.90
2022-07-31T00:39:51.667Z,2.33
2022-07-31T00:42:19.359Z,2.78
2022-07-31T00:44:47.859Z,3.65
2022-07-31T00:47:17.821Z,2.90
2022-07-31T00:49:51.837Z,2.60
2022-07-31T00:52:19.482Z,3.55
2022-07-31T00:54:47.133Z,2.88
2022-07-31T00:57:15.309Z,2.58
2022-07-31T00:59:43.654Z,3.28
2022-07-31T01:02:11.376Z,3.03
2022-07-31T01:04:41.803Z,3.53
2022-07-31T01:07:12.142Z,2.60
2022-07-31T01:09:39.826Z,2.67
2022-07-31T01:12:12.971Z,2.67
2022-07-31T01:14:42.736Z,2.85
2022-07-31T01:17:10.349Z,3.38
2022-07-31T01:19:43.179Z,3.42
2022-07-31T01:22:33.183Z,2.67
2022-07-31T01:25:07.768Z,3.58
2022-07-31T01:27:49.611Z,6.25
2022-07-31T01:30:19.106Z,2.60
2022-07-31T01:32:48.204Z,2.50
2022-07-31T01:35:16.606Z,2.60
2022-07-31T01:37:46.429Z,3.00
2022-07-31T01:40:15.231Z,2.80
2022-07-31T01:42:44.282Z,2.78
2022-07-31T01:45:12.569Z,3.55
2022-07-31T01:47:41.964Z,2.67
2022-07-31T01:50:43.283Z,2.70
2022-07-31T01:52:58.167Z,3.10
2022-07-31T01:55:25.902Z,2.63
2022-07-31T01:57:53.537Z,2.90
2022-07-31T02:00:33.711Z,3.10
2022-07-31T02:03:09.543Z,2.75
2022-07-31T02:05:37.648Z,2.80
2022-07-31T02:08:05.818Z,2.67
2022-07-31T02:10:33.441Z,2.90
2022-07-31T02:13:02.688Z,3.28
2022-07-31T02:15:30.463Z,3.55
2022-07-31T02:17:58.226Z,3.10
2022-07-31T02:20:27.829Z,5.32
2022-07-31T02:22:55.456Z,2.63
2022-07-31T02:25:23.089Z,3.10
2022-07-31T02:27:53.741Z,2.58
2022-07-31T02:30:26.386Z,3.20
2022-07-31T02:32:53.980Z,2.90
2022-07-31T02:35:21.618Z,2.90
2022-07-31T02:37:51.834Z,3.55
2022-07-31T02:40:19.493Z,3.80
2022-07-31T02:42:47.349Z,3.33
2022-07-31T02:45:14.984Z,3.00
2022-07-31T02:47:42.654Z,2.85
2022-07-31T02:50:10.621Z,3.60
2022-07-31T02:52:38.702Z,2.50
2022-07-31T02:55:08.498Z,2.85
2022-07-31T02:57:36.075Z,2.83
2022-07-31T03:00:15.648Z,2.90
2022-07-31T03:02:44.284Z,3.30
2022-07-31T03:05:12.008Z,2.72
2022-07-31T03:07:39.609Z,2.85
2022-07-31T03:10:10.869Z,2.90
2022-07-31T03:12:39.793Z,2.83
2022-07-31T03:15:09.789Z,2.70
2022-07-31T03:17:38.335Z,3.80
2022-07-31T03:20:10.737Z,2.78
2022-07-31T03:22:39.696Z,3.17
2022-07-31T03:25:09.213Z,4.43
2022-07-31T03:27:36.797Z,3.67
2022-07-31T03:30:04.981Z,3.38
2022-07-31T03:32:32.618Z,3.35
2022-07-31T03:35:00.281Z,2.80
2022-07-31T03:37:28.006Z,3.45
2022-07-31T03:39:55.671Z,2.80
2022-07-31T03:42:24.687Z,2.60
2022-07-31T03:44:52.385Z,2.70
2022-07-31T03:47:20.136Z,2.63
2022-07-31T03:49:47.740Z,4.53
2022-07-31T03:52:15.582Z,3.28
2022-07-31T03:54:43.596Z,2.80
2022-07-31T03:57:11.180Z,2.95
2022-07-31T03:59:48.036Z,2.88
2022-07-31T04:02:18.742Z,2.90
2022-07-31T04:04:46.761Z,2.95
2022-07-31T04:07:14.344Z,3.10
2022-07-31T04:09:42.630Z,2.90
2022-07-31T04:12:10.430Z,2.78
2022-07-31T04:14:38.127Z,3.63
2022-07-31T04:17:07.168Z,3.08
2022-07-31T04:19:35.066Z,2.70
2022-07-31T04:22:03.002Z,2.83
2022-07-31T04:24:30.792Z,3.65
2022-07-31T04:26:58.477Z,2.80
2022-07-31T04:29:28.557Z,3.80
2022-07-31T04:31:56.340Z,3.13
2022-07-31T04:34:25.571Z,2.97
2022-07-31T04:36:53.205Z,3.97
2022-07-31T04:39:20.821Z,3.70
2022-07-31T04:41:48.422Z,2.80
2022-07-31T04:44:16.136Z,3.47
2022-07-31T04:46:44.382Z,2.78
2022-07-31T04:49:13.135Z,2.63
2022-07-31T04:51:42.321Z,3.13
2022-07-31T04:54:09.934Z,3.22
2022-07-31T04:56:42.038Z,3.78
2022-07-31T04:59:11.195Z,2.80
2022-07-31T05:01:39.199Z,3.63
2022-07-31T05:04:07.151Z,4.97
2022-07-31T05:06:36.337Z,3.00
2022-07-31T05:09:09.002Z,5.35
2022-07-31T05:11:38.422Z,2.88
2022-07-31T05:14:06.801Z,3.03
2022-07-31T05:16:34.522Z,2.95
2022-07-31T05:19:02.452Z,3.28
2022-07-31T05:21:30.888Z,2.50
2022-07-31T05:23:58.860Z,3.00
2022-07-31T05:26:28.488Z,3.00
2022-07-31T05:28:58.530Z,3.95
2022-07-31T05:31:26.640Z,2.90
2022-07-31T05:33:54.423Z,3.05
2022-07-31T05:36:22.122Z,3.10
2022-07-31T05:38:49.744Z,3.17
2022-07-31T05:41:17.404Z,3.13
2022-07-31T05:43:46.397Z,3.97
2022-07-31T05:46:16.660Z,3.53
2022-07-31T05:48:44.454Z,3.45
2022-07-31T05:51:12.400Z,2.78
2022-07-31T05:53:40.264Z,2.90
2022-07-31T05:56:11.889Z,3.70
2022-07-31T05:58:39.549Z,2.88
2022-07-31T06:01:08.626Z,3.30
2022-07-31T06:03:51.503Z,3.35
2022-07-31T06:06:20.185Z,3.35
2022-07-31T06:08:47.882Z,3.75
2022-07-31T06:11:15.480Z,5.15
2022-07-31T06:13:43.744Z,3.95
2022-07-31T06:16:14.736Z,6.93
2022-07-31T06:18:43.086Z,3.50
2022-07-31T06:23:38.904Z,3.33
2022-07-31T06:26:06.529Z,4.38
2022-07-31T06:28:47.833Z,5.10
2022-07-31T06:31:18.850Z,4.07
2022-07-31T06:33:48.183Z,4.13
2022-07-31T06:36:16.233Z,5.60
2022-07-31T06:38:43.872Z,4.00
2022-07-31T06:41:11.468Z,6.70
2022-07-31T06:43:39.149Z,5.18
2022-07-31T06:46:06.745Z,4.53
2022-07-31T06:48:35.679Z,4.20
2022-07-31T06:51:28.379Z,4.15
2022-07-31T06:53:51.050Z,6.07
2022-07-31T06:56:18.792Z,4.47
2022-07-31T06:58:46.450Z,3.92
2022-07-31T07:01:14.175Z,3.75
2022-07-31T07:03:43.187Z,7.05
2022-07-31T07:06:11.240Z,7.38
2022-07-31T07:08:38.850Z,3.75
2022-07-31T07:11:09.164Z,5.03
2022-07-31T07:13:46.311Z,5.95
2022-07-31T07:16:15.986Z,5.57
2022-07-31T07:18:44.943Z,6.47
2022-07-31T07:21:12.527Z,4.45
2022-07-31T07:23:40.193Z,5.03
2022-07-31T07:26:07.901Z,3.53
2022-07-31T07:28:35.588Z,3.55
2022-07-31T07:31:03.353Z,4.10
2022-07-31T07:33:41.633Z,3.92
2022-07-31T07:36:23.319Z,3.50
2022-07-31T07:38:51.392Z,3.30
2022-07-31T07:41:19.060Z,3.28
2022-07-31T07:43:51.591Z,5.85
2022-07-31T07:46:20.770Z,4.35
2022-07-31T07:48:49.073Z,3.78
2022-07-31T07:51:18.208Z,4.05
2022-07-31T07:53:45.827Z,3.75
2022-07-31T07:56:13.629Z,5.53
2022-07-31T07:58:41.241Z,3.40
2022-07-31T08:01:09.044Z,3.70
2022-07-31T08:03:48.578Z,4.35
2022-07-31T08:06:21.230Z,3.75
2022-07-31T08:08:48.960Z,3.47
2022-07-31T08:11:17.033Z,3.15
2022-07-31T08:13:50.158Z,3.15
2022-07-31T08:16:19.180Z,3.25
2022-07-31T08:18:46.799Z,5.50
2022-07-31T08:21:14.475Z,3.28
2022-07-31T08:23:43.519Z,3.40
2022-07-31T08:26:11.589Z,3.40
2022-07-31T08:28:41.583Z,4.35
2022-07-31T08:31:17.834Z,4.03
2022-07-31T08:33:45.465Z,3.58
2022-07-31T08:36:13.101Z,3.65
2022-07-31T08:38:40.740Z,3.20
2022-07-31T08:41:09.807Z,3.13
2022-07-31T08:44:00.691Z,3.40
2022-07-31T08:46:24.965Z,3.05
2022-07-31T08:48:53.378Z,2.83
2022-07-31T08:51:22.010Z,2.83
2022-07-31T08:53:49.667Z,3.55
2022-07-31T08:56:18.677Z,2.92
2022-07-31T08:58:46.866Z,2.60
2022-07-31T09:01:14.974Z,2.92
2022-07-31T09:03:42.717Z,3.90
2022-07-31T09:06:10.861Z,3.42
2022-07-31T09:08:38.569Z,3.60
2022-07-31T09:11:06.758Z,3.72
2022-07-31T09:13:35.876Z,4.07
2022-07-31T09:16:03.602Z,2.80
2022-07-31T09:18:31.254Z,3.47
2022-07-31T09:21:00.008Z,4.00
2022-07-31T09:23:29.861Z,4.35
2022-07-31T09:25:58.714Z,4.00
2022-07-31T09:28:35.140Z,2.80
2022-07-31T09:31:02.825Z,6.78
2022-07-31T09:33:31.848Z,4.82
2022-07-31T09:36:00.082Z,3.38
2022-07-31T09:38:32.157Z,6.60
2022-07-31T09:41:52.400Z,5.45
2022-07-31T09:44:00.575Z,9.60
2022-07-31T09:46:28.403Z,7.82
2022-07-31T09:49:00.167Z,18.70
2022-07-31T09:51:27.996Z,17.73
2022-07-31T09:53:57.656Z,13.60
2022-07-31T09:56:30.895Z,10.57
2022-07-31T09:58:59.964Z,13.93
2022-07-31T10:01:27.807Z,11.10
2022-07-31T10:03:56.759Z,8.07
2022-07-31T10:06:24.486Z,10.80
2022-07-31T10:08:52.353Z,4.80
2022-07-31T10:11:20.521Z,7.78
2022-07-31T10:13:50.013Z,5.78
2022-07-31T10:16:19.065Z,8.60
2022-07-31T10:18:48.150Z,9.38
2022-07-31T10:21:15.861Z,5.45
2022-07-31T10:23:43.449Z,10.35
2022-07-31T10:26:11.111Z,6.75
2022-07-31T10:28:39.116Z,8.93
2022-07-31T10:31:06.764Z,8.15
2022-07-31T10:33:44.707Z,6.72
2022-07-31T10:36:13.201Z,8.73
2022-07-31T10:38:42.626Z,7.03
2022-07-31T10:41:13.278Z,7.32
2022-07-31T10:43:44.840Z,5.57
2022-07-31T10:46:12.753Z,9.00
2022-07-31T10:48:51.558Z,5.70
2022-07-31T10:51:19.205Z,9.18
2022-07-31T10:53:55.367Z,5.10
2022-07-31T10:56:23.878Z,5.68
2022-07-31T10:58:54.475Z,6.50
2022-07-31T11:01:22.701Z,4.18
2022-07-31T11:03:59.991Z,5.35
2022-07-31T11:06:27.889Z,6.25
2022-07-31T11:08:55.672Z,10.02
2022-07-31T11:11:32.301Z,12.15
2022-07-31T11:14:00.495Z,8.55
2022-07-31T11:16:28.847Z,12.50
2022-07-31T11:19:01.271Z,18.73
2022-07-31T11:21:40.444Z,7.80
2022-07-31T11:24:15.394Z,9.23
2022-07-31T11:26:44.270Z,9.85
2022-07-31T11:29:59.153Z,10.82
2022-07-31T11:32:13.916Z,8.23
2022-07-31T11:34:48.349Z,6.10
2022-07-31T11:37:20.442Z,8.45
2022-07-31T11:39:51.643Z,7.85
2022-07-31T11:42:20.566Z,9.98
2022-07-31T11:44:54.567Z,5.47
2022-07-31T11:48:09.470Z,3.90
2022-07-31T11:50:11.371Z,9.27
2022-07-31T11:52:43.302Z,8.80
2022-07-31T11:55:13.233Z,7.07
2022-07-31T11:57:52.346Z,9.30
2022-07-31T12:00:27.182Z,7.80
2022-07-31T12:02:58.327Z,5.93
2022-07-31T12:05:37.962Z,6.93
2022-07-31T12:08:06.978Z,12.35
2022-07-31T12:10:34.631Z,8.52
2022-07-31T12:13:03.053Z,15.98
2022-07-31T12:15:30.668Z,7.55
2022-07-31T12:18:01.169Z,9.18
2022-07-31T12:20:35.992Z,5.45
2022-07-31T12:23:06.070Z,7.03
2022-07-31T12:25:43.305Z,8.55
2022-07-31T12:28:11.251Z,5.47
2022-07-31T12:30:38.836Z,7.88
2022-07-31T12:33:07.410Z,7.38
2022-07-31T12:35:56.213Z,3.83
2022-07-31T12:38:41.044Z,3.25
2022-07-31T12:41:13.416Z,4.90
2022-07-31T12:43:51.884Z,4.10
2022-07-31T12:46:23.729Z,5.45
2022-07-31T12:48:51.891Z,3.47
2022-07-31T12:51:45.440Z,3.97
2022-07-31T12:54:09.000Z,5.18
2022-07-31T12:56:36.756Z,3.65
2022-07-31T12:59:04.473Z,4.00
2022-07-31T13:01:32.127Z,3.53
2022-07-31T13:03:59.783Z,3.33
2022-07-31T13:06:32.301Z,4.75
2022-07-31T13:08:59.910Z,3.08
2022-07-31T13:11:30.325Z,2.65
2022-07-31T13:14:15.090Z,4.70
2022-07-31T13:16:42.766Z,2.60
2022-07-31T13:19:10.385Z,3.00
2022-07-31T13:21:49.083Z,2.88
2022-07-31T13:24:17.509Z,2.55
2022-07-31T13:26:45.708Z,2.60
2022-07-31T13:29:13.695Z,4.43
2022-07-31T13:31:41.678Z,2.78
2022-07-31T13:34:09.310Z,3.20
2022-07-31T13:36:38.905Z,2.40
2022-07-31T13:39:08.699Z,5.70
2022-07-31T13:41:38.862Z,4.57
2022-07-31T13:44:07.176Z,2.95
2022-07-31T13:46:34.902Z,3.67
2022-07-31T13:49:03.990Z,2.65
2022-07-31T13:51:31.602Z,4.90
2022-07-31T13:53:59.260Z,4.20
2022-07-31T13:56:39.693Z,2.47
2022-07-31T13:59:11.388Z,7.35
2022-07-31T14:02:03.326Z,5.75
2022-07-31T14:04:28.544Z,3.92
2022-07-31T14:07:00.828Z,5.07
2022-07-31T14:09:28.590Z,5.72
2022-07-31T14:11:57.516Z,5.22
2022-07-31T14:14:25.289Z,12.02
2022-07-31T14:16:52.934Z,4.95
2022-07-31T14:19:20.879Z,5.35
2022-07-31T14:21:56.294Z,3.00
2022-07-31T14:24:24.828Z,8.32
2022-07-31T14:26:52.492Z,3.42
2022-07-31T14:29:21.504Z,3.08
2022-07-31T14:31:49.105Z,4.38
2022-07-31T14:34:16.717Z,4.90
2022-07-31T14:36:44.376Z,4.65
2022-07-31T14:39:11.972Z,5.63
2022-07-31T14:41:39.578Z,4.00
2022-07-31T14:44:07.205Z,3.25
2022-07-31T14:46:36.172Z,5.65
2022-07-31T14:49:04.605Z,16.17
2022-07-31T14:51:32.280Z,7.32
2022-07-31T14:54:00.567Z,4.82
2022-07-31T14:56:58.642Z,3.35
2022-07-31T14:59:16.446Z,6.50
2022-07-31T15:01:45.475Z,4.28
2022-07-31T15:04:13.127Z,4.30
2022-07-31T15:06:59.020Z,4.30
2022-07-31T15:09:28.296Z,5.78
2022-07-31T15:12:01.319Z,4.10
2022-07-31T15:14:29.702Z,2.72
2022-07-31T15:16:58.655Z,3.75
2022-07-31T15:19:26.256Z,7.43
2022-07-31T15:22:16.074Z,3.00
2022-07-31T15:24:48.364Z,6.47
2022-07-31T15:27:17.161Z,3.55
2022-07-31T15:30:05.393Z,4.40
2022-07-31T15:32:33.876Z,2.90
2022-07-31T15:35:01.518Z,2.95
2022-07-31T15:37:30.029Z,3.08
2022-07-31T15:40:02.638Z,4.70
2022-07-31T15:42:31.792Z,2.70
2022-07-31T15:44:59.423Z,4.93
2022-07-31T15:47:26.998Z,2.92
2022-07-31T15:49:56.047Z,2.90
2022-07-31T15:52:23.658Z,3.17
2022-07-31T15:54:52.559Z,3.85
2022-07-31T15:57:21.054Z,3.22
2022-07-31T15:59:49.197Z,3.38
2022-07-31T16:02:16.847Z,6.10
2022-07-31T16:04:51.670Z,5.90
2022-07-31T16:08:29.261Z,5.72
2022-07-31T16:10:16.124Z,3.20
2022-07-31T16:12:44.783Z,4.38
2022-07-31T16:15:12.648Z,3.20
2022-07-31T16:17:40.559Z,3.33
2022-07-31T16:20:09.545Z,4.13
2022-07-31T16:22:38.863Z,4.28
2022-07-31T16:25:07.612Z,4.22
2022-07-31T16:27:35.303Z,4.38
2022-07-31T16:30:03.259Z,4.20
2022-07-31T16:32:31.230Z,3.47
2022-07-31T16:35:01.238Z,4.47
2022-07-31T16:37:50.137Z,3.75
2022-07-31T16:40:29.455Z,5.05
2022-07-31T16:43:00.704Z,4.43
2022-07-31T16:45:28.529Z,6.32
2022-07-31T16:47:56.135Z,4.38
2022-07-31T16:50:24.111Z,3.95
2022-07-31T16:52:54.902Z,15.18
2022-07-31T16:55:51.590Z,4.00
2022-07-31T16:58:13.658Z,4.32
2022-07-31T17:00:41.353Z,4.32
2022-07-31T17:03:58.528Z,4.45
2022-07-31T17:05:56.658Z,3.97
2022-07-31T17:08:24.279Z,3.72
2022-07-31T17:10:54.769Z,4.30
2022-07-31T17:13:22.668Z,3.97
2022-07-31T17:15:50.269Z,4.38
2022-07-31T17:18:17.887Z,5.07
2022-07-31T17:20:47.063Z,4.57
2022-07-31T17:23:14.787Z,4.40
2022-07-31T17:25:43.455Z,4.53
2022-07-31T17:28:15.373Z,4.25
2022-07-31T17:30:44.861Z,3.97
2022-07-31T17:33:12.448Z,4.40
2022-07-31T17:35:40.297Z,6.20
2022-07-31T17:38:07.906Z,4.93
2022-07-31T17:40:44.142Z,5.18
2022-07-31T17:43:13.444Z,5.47
2022-07-31T17:45:59.637Z,10.48
2022-07-31T17:48:28.859Z,4.78
2022-07-31T17:50:56.771Z,4.18
2022-07-31T17:53:24.373Z,4.20
2022-07-31T17:56:13.036Z,3.88
2022-07-31T17:58:42.945Z,4.38
2022-07-31T18:01:10.700Z,6.07
2022-07-31T18:03:38.315Z,5.70
2022-07-31T18:06:05.959Z,4.63
2022-07-31T18:08:33.589Z,4.22
2022-07-31T18:11:01.174Z,5.72
2022-07-31T18:13:28.797Z,4.78
2022-07-31T18:15:58.545Z,5.22
2022-07-31T18:18:26.225Z,6.88
2022-07-31T18:20:53.881Z,4.07
2022-07-31T18:23:22.936Z,4.82
2022-07-31T18:25:51.417Z,4.15
2022-07-31T18:28:19.009Z,4.38
2022-07-31T18:30:46.685Z,4.43
2022-07-31T18:33:17.234Z,4.32
2022-07-31T18:35:44.871Z,6.28
2022-07-31T18:38:12.580Z,3.95
2022-07-31T18:40:40.175Z,4.50
2022-07-31T18:43:07.809Z,5.25
2022-07-31T18:45:35.996Z,4.70
2022-07-31T18:48:09.146Z,4.85
2022-07-31T18:51:00.503Z,3.95
2022-07-31T18:53:26.077Z,4.35
2022-07-31T18:55:53.669Z,4.45
2022-07-31T18:58:21.248Z,6.03
2022-07-31T19:00:54.568Z,4.13
2022-07-31T19:03:23.351Z,3.88
2022-07-31T19:05:52.972Z,4.40
2022-07-31T19:08:21.101Z,4.00
2022-07-31T19:10:49.237Z,4.57
2022-07-31T19:13:18.839Z,4.30
2022-07-31T19:15:47.414Z,6.50
2022-07-31T19:18:15.286Z,4.32
2022-07-31T19:21:00.255Z,4.40
2022-07-31T19:23:34.119Z,4.10
2022-07-31T19:26:03.709Z,4.35
2022-07-31T19:28:32.172Z,4.45
2022-07-31T19:30:59.896Z,6.45
2022-07-31T19:33:27.558Z,6.00
2022-07-31T19:36:01.239Z,4.38
2022-07-31T19:38:29.847Z,4.13
2022-07-31T19:40:58.836Z,5.55
2022-07-31T19:43:26.639Z,4.75
2022-07-31T19:46:09.554Z,6.47
2022-07-31T19:48:40.506Z,6.93
2022-07-31T19:51:08.376Z,4.40
2022-07-31T19:53:36.073Z,4.18
2022-07-31T19:56:06.367Z,4.43
2022-07-31T19:58:34.569Z,5.70
2022-07-31T20:01:02.507Z,6.25
2022-07-31T20:03:30.333Z,12.55
2022-07-31T20:05:58.191Z,4.28
2022-07-31T20:08:25.816Z,4.70
2022-07-31T20:10:54.798Z,4.75
2022-07-31T20:13:23.712Z,4.50
2022-07-31T20:15:53.148Z,4.53
2022-07-31T20:18:27.423Z,7.45
2022-07-31T20:20:56.841Z,6.10
2022-07-31T20:23:24.728Z,6.82
2022-07-31T20:25:52.317Z,4.50
2022-07-31T20:28:19.931Z,5.43
2022-07-31T20:30:48.917Z,6.25
2022-07-31T20:33:16.617Z,5.22
2022-07-31T20:35:48.738Z,7.82
2022-07-31T20:38:17.639Z,5.50
2022-07-31T20:40:48.270Z,4.65
2022-07-31T20:43:23.186Z,6.85
2022-07-31T20:45:52.301Z,5.68
2022-07-31T20:48:21.788Z,6.40
2022-07-31T20:50:49.412Z,5.05
2022-07-31T20:53:17.296Z,7.93
2022-07-31T20:55:46.948Z,4.53
2022-07-31T20:58:14.801Z,4.78
2022-07-31T21:00:42.445Z,4.40
2022-07-31T21:03:11.577Z,7.45
2022-07-31T21:05:39.224Z,4.03
2022-07-31T21:08:06.940Z,4.53
2022-07-31T21:10:35.456Z,4.43
2022-07-31T21:13:03.243Z,4.22
2022-07-31T21:15:42.314Z,5.00
2022-07-31T21:18:13.689Z,4.55
2022-07-31T21:20:51.911Z,4.15
2022-07-31T21:23:21.432Z,4.43
2022-07-31T21:25:49.396Z,5.30
2022-07-31T21:28:17.499Z,4.38
2022-07-31T21:30:45.379Z,5.20
2022-07-31T21:33:14.623Z,3.90
2022-07-31T21:35:42.721Z,5.25
2022-07-31T21:38:11.960Z,3.60
2022-07-31T21:40:40.102Z,3.92
2022-07-31T21:43:08.161Z,3.65
2022-07-31T21:45:50.550Z,3.58
2022-07-31T21:48:25.728Z,4.53
2022-07-31T21:50:53.531Z,3.22
2022-07-31T21:53:21.223Z,3.88
2022-07-31T21:55:49.201Z,3.60
2022-07-31T21:58:17.900Z,3.70
2022-07-31T22:00:45.694Z,4.32
2022-07-31T22:03:13.455Z,3.63
2022-07-31T22:06:08.667Z,3.13
2022-07-31T22:08:36.307Z,4.07
2022-07-31T22:11:03.930Z,4.70
2022-07-31T22:13:31.545Z,3.72
2022-07-31T22:16:00.984Z,3.33
2022-07-31T22:18:29.124Z,3.72
2022-07-31T22:20:58.384Z,3.30
2022-07-31T22:23:26.926Z,4.30
2022-07-31T22:25:54.649Z,3.33
2022-07-31T22:28:23.174Z,3.28
2022-07-31T22:30:51.247Z,3.33
2022-07-31T22:33:18.939Z,3.30
2022-07-31T22:36:00.366Z,3.75
2022-07-31T22:38:30.604Z,2.90
2022-07-31T22:40:58.580Z,2.80
2022-07-31T22:44:12.339Z,5.28
2022-07-31T22:46:14.182Z,3.15
2022-07-31T22:48:41.930Z,3.33
2022-07-31T22:51:10.695Z,3.47
2022-07-31T22:53:41.941Z,3.53
2022-07-31T22:56:09.562Z,2.83
2022-07-31T22:58:37.159Z,3.05
2022-07-31T23:01:04.797Z,3.63
2022-07-31T23:03:32.416Z,2.97
2022-07-31T23:06:02.680Z,3.50
2022-07-31T23:08:54.698Z,4.03
2022-07-31T23:11:23.401Z,3.03
2022-07-31T23:13:51.179Z,3.50
2022-07-31T23:16:20.134Z,3.50
2022-07-31T23:18:47.750Z,2.60
2022-07-31T23:21:15.357Z,3.20
2022-07-31T23:23:48.853Z,3.28
2022-07-31T23:26:19.177Z,2.80
2022-07-31T23:28:46.926Z,2.90
2022-07-31T23:31:14.595Z,3.05
2022-07-31T23:33:42.524Z,3.05
2022-07-31T23:36:10.140Z,3.00
2022-07-31T23:38:37.820Z,2.88
2022-07-31T23:41:05.486Z,3.03
2022-07-31T23:43:33.447Z,3.20
2022-07-31T23:46:01.041Z,2.83
2022-07-31T23:48:29.865Z,3.42
2022-07-31T23:50:57.994Z,3.25
2022-07-31T23:53:25.600Z,3.42
2022-07-31T23:55:53.333Z,3.28
2022-07-31T23:58:21.273Z,3.20
